Martin City, Missouri
Current Conditions -  °F | °C
As of 11:53 PM on Saturday 25 Oct 2014 (Local Time) from KOJC Reporting Station
Clear Clear  
Wind Chill: 64°   Ceiling: Unl
Heat Index: 64°   Visibility: 10mi
Dew Point: 57°   Wind: 5mph
Humidity: 78%   Direction: 120°ESE
Pressure: 29.99"   Gusts: NA
Location:  38.8519°N, 94.5455°W
Report Text: KOJC 260453Z AUTO 12004KT 10SM CLR 18/14 A2999 RMK AO2 SLP148 T01780139
Loading
Personal Weather Stations






























Interactive Weather Map
Tropical Storm Tracking
New forecast layout! Learn more

10-Day Weather Forecast

Advertisements
Track Severe Weather on mobile